Time;durP1;ratioP1;P1;durP2;ratioP2;P2;SDS_P1;SDS_P2;PMS_P1;PMS_P2;Temp;Humidity;BMP_temperature;BMP_pressure;BME280_temperature;BME280_humidity;BME280_pressure;Samples;Min_cycle;Max_cycle;Signal;HPM_P1;HPM_P2
2024/01/17 00:01:12;;;;;;;6.82;2.85;;;;;;;;;;4993357;28;20101;-57
2024/01/17 00:03:37;;;;;;;8.85;3.00;;;;;;;;;;4993781;28;20050;-56
2024/01/17 00:06:02;;;;;;;7.57;2.90;;;;;;;;;;4994129;28;20550;-57
2024/01/17 00:08:28;;;;;;;9.45;3.13;;;;;;;;;;4994287;28;20085;-57
2024/01/17 00:10:54;;;;;;;8.55;3.40;;;;;;;;;;4994307;28;20026;-56
2024/01/17 00:13:19;;;;;;;14.27;4.18;;;;;;;;;;4993735;28;20450;-56
2024/01/17 00:15:44;;;;;;;7.90;3.35;;;;;;;;;;4993076;28;20117;-57
2024/01/17 00:18:10;;;;;;;10.98;3.47;;;;;;;;;;4994771;28;20049;-57
2024/01/17 00:20:35;;;;;;;10.18;3.67;;;;;;;;;;4993951;28;20031;-57
2024/01/17 00:23:00;;;;;;;9.17;3.50;;;;;;;;;;4994233;28;20034;-58
2024/01/17 00:25:25;;;;;;;9.82;3.45;;;;;;;;;;4994573;28;20022;-57
2024/01/17 00:27:50;;;;;;;8.60;3.47;;;;;;;;;;4985964;28;20031;-57
2024/01/17 00:30:16;;;;;;;8.63;3.23;;;;;;;;;;4991544;28;20054;-56
2024/01/17 00:32:41;;;;;;;11.50;3.70;;;;;;;;;;4993021;28;20026;-57
2024/01/17 00:35:08;;;;;;;11.53;3.97;;;;;;;;;;4994440;28;20471;-57
2024/01/17 00:37:33;;;;;;;;;;;;;;;;;;4992989;28;20105;-57
2024/01/17 00:39:58;;;;;;;11.88;3.38;;;;;;;;;;4994002;28;19944;-56
2024/01/17 00:42:26;;;;;;;11.20;4.00;;;;;;;;;;4992302;28;20030;-57
2024/01/17 00:44:51;;;;;;;11.10;4.20;;;;;;;;;;4993287;28;20458;-56
2024/01/17 00:47:16;;;;;;;15.10;4.63;;;;;;;;;;4992365;28;20042;-57
2024/01/17 00:49:41;;;;;;;8.65;3.30;;;;;;;;;;4992869;28;20035;-58
2024/01/17 00:52:06;;;;;;;8.40;3.93;;;;;;;;;;4991907;28;20097;-57
2024/01/17 00:54:32;;;;;;;10.83;4.10;;;;;;;;;;4989065;28;20023;-57
2024/01/17 00:56:58;;;;;;;10.47;4.33;;;;;;;;;;4987734;28;20821;-55
2024/01/17 00:59:23;;;;;;;10.30;4.22;;;;;;;;;;4992426;28;20096;-57
2024/01/17 01:01:48;;;;;;;10.77;4.00;;;;;;;;;;4992539;28;20502;-56
2024/01/17 01:04:13;;;;;;;9.90;4.03;;;;;;;;;;4992751;28;20394;-58
2024/01/17 01:06:38;;;;;;;10.60;4.65;;;;;;;;;;4991632;28;20870;-58
2024/01/17 01:09:04;;;;;;;11.30;3.83;;;;;;;;;;4992830;28;20046;-56
2024/01/17 01:11:29;;;;;;;8.27;3.40;;;;;;;;;;4990233;28;20033;-57
2024/01/17 01:13:55;;;;;;;11.57;3.97;;;;;;;;;;4992132;28;20044;-56
2024/01/17 01:16:20;;;;;;;10.30;4.07;;;;;;;;;;4991888;28;20402;-56
2024/01/17 01:18:45;;;;;;;10.95;3.85;;;;;;;;;;4993503;28;20037;-56
2024/01/17 01:21:10;;;;;;;12.77;3.95;;;;;;;;;;4979527;28;20097;-56
2024/01/17 01:23:35;;;;;;;10.93;4.20;;;;;;;;;;4987354;28;20371;-57
2024/01/17 01:26:00;;;;;;;11.98;4.18;;;;;;;;;;4995159;28;20418;-56
2024/01/17 01:28:26;;;;;;;11.50;4.10;;;;;;;;;;5000849;28;20038;-57
2024/01/17 01:30:52;;;;;;;11.50;4.05;;;;;;;;;;5004603;28;20054;-57
2024/01/17 01:33:17;;;;;;;11.00;3.83;;;;;;;;;;5005621;28;20097;-56
2024/01/17 01:35:42;;;;;;;10.90;4.70;;;;;;;;;;4998195;28;20027;-55
2024/01/17 01:38:07;;;;;;;14.45;4.68;;;;;;;;;;4992812;28;20118;-56
2024/01/17 01:40:32;;;;;;;10.48;4.10;;;;;;;;;;4991222;28;20022;-56
2024/01/17 01:43:00;;;;;;;15.38;4.22;;;;;;;;;;4992191;28;20030;-57
2024/01/17 01:45:25;;;;;;;;;;;;;;;;;;4996004;28;20026;-56
2024/01/17 01:47:50;;;;;;;14.35;4.32;;;;;;;;;;4994316;28;19921;-56
2024/01/17 01:50:16;;;;;;;12.03;4.20;;;;;;;;;;4994717;28;20046;-56
2024/01/17 01:52:42;;;;;;;12.68;4.38;;;;;;;;;;4993516;28;20457;-57
2024/01/17 01:55:09;;;;;;;11.00;4.07;;;;;;;;;;4991164;28;20030;-56
2024/01/17 01:57:36;;;;;;;14.40;4.28;;;;;;;;;;4991229;28;20458;-57
2024/01/17 02:00:04;;;;;;;11.30;4.65;;;;;;;;;;4991845;28;20512;-56
2024/01/17 02:02:29;;;;;;;11.70;4.53;;;;;;;;;;4991512;28;20557;-56
2024/01/17 02:04:55;;;;;;;12.13;4.75;;;;;;;;;;4995809;28;20026;-60
2024/01/17 02:07:21;;;;;;;14.30;4.63;;;;;;;;;;4997449;28;20058;-56
2024/01/17 02:09:46;;;;;;;15.98;4.93;;;;;;;;;;4994220;28;20110;-56
2024/01/17 02:12:12;;;;;;;12.30;4.80;;;;;;;;;;4997154;28;20073;-56
2024/01/17 02:14:39;;;;;;;12.57;5.10;;;;;;;;;;4991969;28;20739;-56
2024/01/17 02:17:04;;;;;;;10.15;4.38;;;;;;;;;;4985140;28;20110;-56
2024/01/17 02:19:31;;;;;;;12.20;4.78;;;;;;;;;;4992438;28;20120;-56
2024/01/17 02:21:57;;;;;;;11.38;4.63;;;;;;;;;;4991956;28;20503;-56
2024/01/17 02:24:23;;;;;;;11.15;4.43;;;;;;;;;;4982396;28;20066;-56
2024/01/17 02:26:48;;;;;;;13.05;4.65;;;;;;;;;;4976956;28;20109;-56
2024/01/17 02:29:13;;;;;;;16.30;4.60;;;;;;;;;;4991472;28;20030;-55
2024/01/17 02:31:40;;;;;;;13.35;4.75;;;;;;;;;;4991628;28;20022;-57
2024/01/17 02:34:05;;;;;;;12.10;5.20;;;;;;;;;;4977231;28;20545;-56
2024/01/17 02:36:31;;;;;;;13.43;4.87;;;;;;;;;;4973009;28;20030;-57
2024/01/17 02:38:56;;;;;;;11.20;4.28;;;;;;;;;;4972649;28;20110;-56
2024/01/17 02:41:21;;;;;;;14.97;4.90;;;;;;;;;;4980886;28;20127;-57
2024/01/17 02:43:48;;;;;;;12.23;4.88;;;;;;;;;;4988486;28;20036;-56
2024/01/17 02:46:13;;;;;;;11.63;4.78;;;;;;;;;;4991384;28;20018;-57
2024/01/17 02:48:38;;;;;;;14.32;5.13;;;;;;;;;;4991589;28;20034;-57
2024/01/17 02:51:04;;;;;;;14.50;4.90;;;;;;;;;;4991199;28;20042;-58
2024/01/17 02:53:29;;;;;;;16.00;4.83;;;;;;;;;;4991278;28;20040;-56
2024/01/17 02:55:54;;;;;;;13.52;5.10;;;;;;;;;;4995231;28;20494;-56
2024/01/17 02:58:19;;;;;;;10.70;4.57;;;;;;;;;;4994378;28;20018;-56
2024/01/17 03:00:44;;;;;;;14.63;5.10;;;;;;;;;;4988886;28;20030;-57
2024/01/17 03:03:10;;;;;;;14.93;5.17;;;;;;;;;;4985160;28;20027;-57
2024/01/17 03:05:37;;;;;;;14.00;4.85;;;;;;;;;;4994870;28;20498;-56
2024/01/17 03:08:02;;;;;;;14.13;5.28;;;;;;;;;;4995224;28;20044;-56
2024/01/17 03:10:27;;;;;;;12.83;4.77;;;;;;;;;;4995512;28;20026;-57
2024/01/17 03:12:52;;;;;;;15.50;5.17;;;;;;;;;;4994228;28;20021;-58
2024/01/17 03:15:17;;;;;;;14.45;5.40;;;;;;;;;;4992633;28;20387;-57
2024/01/17 03:17:42;;;;;;;11.75;5.25;;;;;;;;;;4999421;28;20453;-57
2024/01/17 03:20:10;;;;;;;13.82;5.05;;;;;;;;;;4996255;28;20023;-57
2024/01/17 03:22:36;;;;;;;14.73;5.30;;;;;;;;;;4995414;28;20023;-56
2024/01/17 03:25:01;;;;;;;15.77;5.73;;;;;;;;;;5000883;28;20030;-56
2024/01/17 03:27:26;;;;;;;15.47;5.77;;;;;;;;;;5000367;28;20026;-59
2024/01/17 03:29:51;;;;;;;13.27;5.65;;;;;;;;;;5004413;28;20034;-56
2024/01/17 03:32:17;;;;;;;14.63;5.90;;;;;;;;;;5003014;28;20018;-56
2024/01/17 03:34:42;;;;;;;13.85;5.32;;;;;;;;;;5015618;28;20051;-57
2024/01/17 03:37:07;;;;;;;13.53;5.50;;;;;;;;;;5008727;28;20037;-56
2024/01/17 03:39:33;;;;;;;16.95;5.93;;;;;;;;;;5003464;28;20100;-58
2024/01/17 03:41:58;;;;;;;14.60;5.53;;;;;;;;;;4995174;28;20018;-57
2024/01/17 03:44:23;;;;;;;13.75;5.68;;;;;;;;;;4993396;28;20123;-58
2024/01/17 03:46:50;;;;;;;14.68;5.82;;;;;;;;;;4988935;28;20034;-56
2024/01/17 03:49:15;;;;;;;15.88;5.57;;;;;;;;;;4991665;28;20038;-57
2024/01/17 03:51:40;;;;;;;18.10;6.50;;;;;;;;;;4994851;28;20018;-58
2024/01/17 03:54:06;;;;;;;16.85;5.63;;;;;;;;;;4993907;28;20018;-57
2024/01/17 03:56:31;;;;;;;15.73;6.35;;;;;;;;;;4993929;28;20387;-56
2024/01/17 03:58:56;;;;;;;15.30;5.70;;;;;;;;;;4993905;28;20458;-57
2024/01/17 04:01:21;;;;;;;15.93;6.22;;;;;;;;;;4992194;28;20022;-57
2024/01/17 04:03:46;;;;;;;16.63;5.53;;;;;;;;;;4988303;28;20037;-56
2024/01/17 04:06:11;;;;;;;14.73;5.83;;;;;;;;;;4988501;28;20536;-57
2024/01/17 04:08:37;;;;;;;15.63;5.40;;;;;;;;;;4989715;28;20125;-58
2024/01/17 04:11:03;;;;;;;16.25;5.70;;;;;;;;;;4991725;28;20022;-56
2024/01/17 04:13:28;;;;;;;13.43;5.53;;;;;;;;;;4993148;28;20026;-56
2024/01/17 04:15:53;;;;;;;16.42;6.05;;;;;;;;;;4998974;28;20041;-56
2024/01/17 04:18:18;;;;;;;16.70;5.77;;;;;;;;;;4991761;28;20022;-56
2024/01/17 04:20:44;;;;;;;17.05;5.82;;;;;;;;;;4992611;28;20061;-57
2024/01/17 04:23:09;;;;;;;14.80;5.13;;;;;;;;;;4992587;28;20401;-56
2024/01/17 04:25:35;;;;;;;13.68;5.47;;;;;;;;;;4993443;28;20501;-57
2024/01/17 04:28:06;;;;;;;15.63;6.15;;;;;;;;;;4993599;28;20081;-57
2024/01/17 04:30:32;;;;;;;21.27;6.72;;;;;;;;;;4993743;28;20033;-57
2024/01/17 04:32:57;;;;;;;17.80;6.07;;;;;;;;;;4992794;28;20026;-57
2024/01/17 04:35:22;;;;;;;14.75;5.35;;;;;;;;;;4988686;28;20149;-57
2024/01/17 04:37:47;;;;;;;13.40;5.43;;;;;;;;;;4991696;28;20026;-56
2024/01/17 04:40:13;;;;;;;15.50;5.13;;;;;;;;;;4981194;28;20026;-57
2024/01/17 04:42:38;;;;;;;13.13;5.60;;;;;;;;;;4974755;28;20383;-57
2024/01/17 04:45:04;;;;;;;18.63;6.15;;;;;;;;;;4993529;28;20029;-58
2024/01/17 04:47:29;;;;;;;13.40;5.28;;;;;;;;;;4993824;28;20498;-59
2024/01/17 04:49:55;;;;;;;16.17;6.50;;;;;;;;;;4993050;28;20034;-56
2024/01/17 04:52:20;;;;;;;17.98;6.07;;;;;;;;;;4990883;28;20382;-57
2024/01/17 04:54:45;;;;;;;15.85;5.63;;;;;;;;;;4993229;28;20023;-56
2024/01/17 04:57:10;;;;;;;17.95;6.03;;;;;;;;;;4998586;28;20041;-57
2024/01/17 04:59:38;;;;;;;17.93;6.03;;;;;;;;;;5005949;28;20051;-57
2024/01/17 05:02:03;;;;;;;14.02;5.35;;;;;;;;;;4998421;28;20470;-59
2024/01/17 05:04:28;;;;;;;19.40;6.23;;;;;;;;;;4984732;28;20037;-56
2024/01/17 05:06:53;;;;;;;14.43;5.85;;;;;;;;;;4993278;28;20097;-57
2024/01/17 05:09:19;;;;;;;15.57;5.87;;;;;;;;;;4989513;28;20165;-57
2024/01/17 05:11:44;;;;;;;19.38;6.45;;;;;;;;;;5000488;28;20021;-56
2024/01/17 05:14:09;;;;;;;16.85;6.13;;;;;;;;;;5011987;28;20037;-57
2024/01/17 05:16:35;;;;;;;16.92;5.28;;;;;;;;;;5004245;28;20022;-57
2024/01/17 05:19:00;;;;;;;15.63;6.05;;;;;;;;;;4993124;28;20403;-57
2024/01/17 05:21:25;;;;;;;16.60;5.70;;;;;;;;;;4985106;28;20092;-57
2024/01/17 05:23:50;;;;;;;16.30;6.13;;;;;;;;;;4985965;28;20023;-56
2024/01/17 05:26:16;;;;;;;18.77;6.03;;;;;;;;;;4992447;28;20139;-57
2024/01/17 05:28:41;;;;;;;15.65;6.13;;;;;;;;;;4990972;28;20038;-56
2024/01/17 05:31:06;;;;;;;16.00;6.37;;;;;;;;;;4985920;28;20544;-57
2024/01/17 05:33:31;;;;;;;17.60;5.90;;;;;;;;;;4987743;28;20018;-57
2024/01/17 05:35:56;;;;;;;16.37;5.73;;;;;;;;;;4993110;28;20031;-57
2024/01/17 05:38:22;;;;;;;17.65;6.60;;;;;;;;;;5002909;28;20022;-57
2024/01/17 05:40:47;;;;;;;18.43;6.03;;;;;;;;;;5002169;28;20077;-59
2024/01/17 05:43:13;;;;;;;18.58;6.05;;;;;;;;;;4999679;28;20564;-57
2024/01/17 05:45:38;;;;;;;16.50;6.30;;;;;;;;;;4989159;28;20022;-56
2024/01/17 05:48:03;;;;;;;17.05;6.13;;;;;;;;;;4986333;28;20092;-58
2024/01/17 05:50:28;;;;;;;20.67;7.00;;;;;;;;;;4988846;28;20554;-59
2024/01/17 05:52:53;;;;;;;16.40;5.60;;;;;;;;;;4986715;28;20539;-58
2024/01/17 05:55:20;;;;;;;15.93;5.97;;;;;;;;;;4986840;28;20441;-56
2024/01/17 05:57:45;;;;;;;16.13;6.22;;;;;;;;;;4983459;28;20529;-55
2024/01/17 06:00:11;;;;;;;16.73;6.17;;;;;;;;;;4988176;28;20046;-57
2024/01/17 06:02:36;;;;;;;18.35;6.60;;;;;;;;;;4988307;28;20406;-56
2024/01/17 06:05:02;;;;;;;17.02;6.50;;;;;;;;;;4988568;28;20044;-57
2024/01/17 06:07:27;;;;;;;18.73;5.85;;;;;;;;;;4988793;28;20050;-56
2024/01/17 06:09:52;;;;;;;15.10;5.97;;;;;;;;;;4987330;28;20687;-57
2024/01/17 06:12:18;;;;;;;16.70;6.37;;;;;;;;;;4987911;28;20015;-57
2024/01/17 06:14:43;;;;;;;14.83;5.87;;;;;;;;;;4984612;28;20030;-56
2024/01/17 06:17:08;;;;;;;18.80;6.35;;;;;;;;;;4982354;28;20050;-56
2024/01/17 06:19:33;;;;;;;20.90;6.80;;;;;;;;;;4982396;28;20085;-56
2024/01/17 06:21:58;;;;;;;17.03;6.20;;;;;;;;;;4988799;28;20489;-56
2024/01/17 06:24:23;;;;;;;19.83;6.28;;;;;;;;;;4973146;28;20034;-58
2024/01/17 06:26:49;;;;;;;17.00;6.45;;;;;;;;;;4972768;28;20023;-56
2024/01/17 06:29:14;;;;;;;16.43;6.20;;;;;;;;;;4975571;28;20031;-57
2024/01/17 06:31:39;;;;;;;16.23;6.03;;;;;;;;;;4995922;28;20384;-56
2024/01/17 06:34:04;;;;;;;16.33;6.40;;;;;;;;;;4992887;28;20018;-57
2024/01/17 06:36:29;;;;;;;18.77;6.20;;;;;;;;;;4996473;28;20019;-56
2024/01/17 06:38:55;;;;;;;20.10;6.80;;;;;;;;;;4994571;28;20112;-56
2024/01/17 06:41:20;;;;;;;19.25;6.55;;;;;;;;;;4995909;28;20027;-56
2024/01/17 06:43:46;;;;;;;17.95;6.93;;;;;;;;;;4995820;28;20029;-56
2024/01/17 06:46:11;;;;;;;15.57;6.35;;;;;;;;;;4996256;28;20040;-56
2024/01/17 06:48:36;;;;;;;17.10;6.50;;;;;;;;;;4991085;28;20031;-57
2024/01/17 06:51:02;;;;;;;16.90;6.03;;;;;;;;;;4982442;28;20031;-57
2024/01/17 06:53:27;;;;;;;19.80;6.38;;;;;;;;;;4994271;28;20037;-56
2024/01/17 06:55:53;;;;;;;16.73;5.85;;;;;;;;;;4995533;28;20014;-56
2024/01/17 06:58:18;;;;;;;17.15;6.45;;;;;;;;;;4995740;28;20034;-57
2024/01/17 07:00:44;;;;;;;17.38;6.22;;;;;;;;;;4999868;28;20077;-57
2024/01/17 07:03:09;;;;;;;19.52;6.18;;;;;;;;;;5000622;28;20022;-56
2024/01/17 07:05:35;;;;;;;15.63;6.40;;;;;;;;;;4995241;28;20414;-56
2024/01/17 07:08:00;;;;;;;16.07;6.10;;;;;;;;;;4994191;28;20070;-57
2024/01/17 07:10:25;;;;;;;16.08;5.78;;;;;;;;;;4988062;28;20508;-56
2024/01/17 07:12:53;;;;;;;17.58;6.20;;;;;;;;;;4985916;28;20051;-56
2024/01/17 07:15:18;;;;;;;15.07;5.78;;;;;;;;;;4993507;28;20026;-57
2024/01/17 07:17:43;;;;;;;19.30;5.93;;;;;;;;;;4998763;28;20022;-57
2024/01/17 07:20:10;;;;;;;15.63;6.07;;;;;;;;;;5001872;28;20037;-56
2024/01/17 07:22:41;;;;;;;18.42;6.18;;;;;;;;;;5004366;28;20058;-56
2024/01/17 07:25:06;;;;;;;15.52;5.80;;;;;;;;;;4999241;28;20098;-58
2024/01/17 07:27:31;;;;;;;17.42;5.88;;;;;;;;;;4996631;28;20022;-56
2024/01/17 07:29:56;;;;;;;15.43;5.72;;;;;;;;;;5006310;28;20038;-57
2024/01/17 07:32:24;;;;;;;14.52;5.75;;;;;;;;;;4999951;28;20034;-58
2024/01/17 07:34:50;;;;;;;14.13;5.55;;;;;;;;;;5008305;28;20030;-57
2024/01/17 07:37:16;;;;;;;18.45;6.68;;;;;;;;;;5010267;28;20057;-57
2024/01/17 07:39:41;;;;;;;15.67;5.67;;;;;;;;;;5006443;28;20030;-56
2024/01/17 07:42:06;;;;;;;16.60;6.25;;;;;;;;;;5000272;28;20022;-57
2024/01/17 07:44:33;;;;;;;16.05;6.28;;;;;;;;;;5002880;28;20056;-57
2024/01/17 07:46:58;;;;;;;17.10;6.65;;;;;;;;;;5006102;28;20369;-56
2024/01/17 07:49:23;;;;;;;20.42;6.90;;;;;;;;;;5006442;28;20073;-57
2024/01/17 07:51:48;;;;;;;16.30;6.10;;;;;;;;;;5003456;28;20093;-56
2024/01/17 07:54:15;;;;;;;16.67;6.13;;;;;;;;;;5002955;28;20080;-57
2024/01/17 07:56:40;;;;;;;16.52;5.80;;;;;;;;;;5006780;28;20058;-57
2024/01/17 07:59:07;;;;;;;15.75;6.05;;;;;;;;;;5001801;28;20022;-56
2024/01/17 08:01:32;;;;;;;15.18;5.82;;;;;;;;;;4992472;28;20048;-56
2024/01/17 08:03:57;;;;;;;17.83;6.53;;;;;;;;;;4994460;28;20030;-57
2024/01/17 08:06:22;;;;;;;13.88;5.97;;;;;;;;;;4994749;28;20077;-56
2024/01/17 08:08:48;;;;;;;17.30;6.40;;;;;;;;;;4993801;28;20061;-56
2024/01/17 08:11:13;;;;;;;15.20;5.97;;;;;;;;;;4992969;28;20018;-56
2024/01/17 08:13:39;;;;;;;17.08;6.63;;;;;;;;;;4995252;28;20501;-55
2024/01/17 08:16:05;;;;;;;16.02;5.80;;;;;;;;;;4996515;28;20030;-56
2024/01/17 08:18:30;;;;;;;17.33;6.22;;;;;;;;;;5004550;28;20031;-56
2024/01/17 08:20:56;;;;;;;16.30;5.93;;;;;;;;;;4994102;28;20073;-57
2024/01/17 08:23:22;;;;;;;18.65;6.90;;;;;;;;;;4995474;28;20033;-56
2024/01/17 08:25:47;;;;;;;16.83;6.53;;;;;;;;;;5002556;28;20026;-57
2024/01/17 08:28:12;;;;;;;14.90;6.13;;;;;;;;;;4999002;28;20039;-56
2024/01/17 08:30:37;;;;;;;19.70;6.70;;;;;;;;;;5003834;28;20042;-56
2024/01/17 08:33:03;;;;;;;15.30;6.40;;;;;;;;;;5006151;28;20018;-57
2024/01/17 08:35:28;;;;;;;17.80;6.35;;;;;;;;;;5007599;28;20038;-56
2024/01/17 08:37:53;;;;;;;19.83;7.03;;;;;;;;;;4994005;28;20101;-56
2024/01/17 08:40:19;;;;;;;18.87;6.80;;;;;;;;;;4976479;28;20458;-56
2024/01/17 08:42:45;;;;;;;16.33;6.32;;;;;;;;;;4973291;28;20388;-58
2024/01/17 08:45:10;;;;;;;15.10;5.93;;;;;;;;;;4974427;28;20088;-57
2024/01/17 08:47:35;;;;;;;16.42;6.55;;;;;;;;;;4989381;28;20367;-56
2024/01/17 08:50:01;;;;;;;15.60;6.73;;;;;;;;;;4993219;28;20390;-56
2024/01/17 08:52:26;;;;;;;14.88;6.32;;;;;;;;;;4992058;28;20045;-57
2024/01/17 08:54:52;;;;;;;16.85;6.57;;;;;;;;;;4993470;28;20386;-56
2024/01/17 08:57:17;;;;;;;16.88;7.22;;;;;;;;;;4991501;28;20446;-56
2024/01/17 08:59:42;;;;;;;14.80;6.13;;;;;;;;;;4992980;28;20030;-56
2024/01/17 09:02:08;;;;;;;15.37;6.33;;;;;;;;;;4992062;28;20065;-56
2024/01/17 09:04:33;;;;;;;13.48;5.85;;;;;;;;;;4992904;28;20114;-56
2024/01/17 09:06:58;;;;;;;14.00;5.93;;;;;;;;;;4990895;28;20054;-57
2024/01/17 09:09:25;;;;;;;15.47;5.90;;;;;;;;;;4992933;28;20494;-57
2024/01/17 09:11:50;;;;;;;;;;;;;;;;;;4992968;28;20018;-56
2024/01/17 09:14:19;;;;;;;15.60;6.07;;;;;;;;;;4992122;28;19912;-56
2024/01/17 09:16:44;;;;;;;15.50;5.30;;;;;;;;;;4992658;28;20495;-56
2024/01/17 09:19:10;;;;;;;13.23;5.35;;;;;;;;;;4992998;28;20170;-56
2024/01/17 09:21:35;;;;;;;14.00;5.60;;;;;;;;;;4991782;28;20376;-56
2024/01/17 09:24:00;;;;;;;15.13;5.65;;;;;;;;;;4993101;28;20201;-56
2024/01/17 09:26:25;;;;;;;17.40;5.83;;;;;;;;;;4993224;28;20054;-58
2024/01/17 09:28:51;;;;;;;15.10;6.00;;;;;;;;;;4989457;28;20124;-56
2024/01/17 09:31:16;;;;;;;13.38;5.05;;;;;;;;;;4973596;28;20078;-56
2024/01/17 09:33:41;;;;;;;11.32;5.13;;;;;;;;;;4976254;28;20023;-57
2024/01/17 09:36:07;;;;;;;13.03;5.67;;;;;;;;;;4993047;28;20018;-56
2024/01/17 09:38:32;;;;;;;12.45;4.88;;;;;;;;;;4993312;28;20445;-55
2024/01/17 09:40:57;;;;;;;12.60;5.30;;;;;;;;;;4994458;28;20095;-56
2024/01/17 09:43:23;;;;;;;12.27;4.90;;;;;;;;;;4993264;28;20030;-57
2024/01/17 09:45:48;;;;;;;14.57;5.78;;;;;;;;;;5002454;28;20374;-57
2024/01/17 09:48:14;;;;;;;18.63;5.00;;;;;;;;;;5000131;28;20037;-57
2024/01/17 09:50:40;;;;;;;14.30;5.53;;;;;;;;;;4997311;28;20034;-56
2024/01/17 09:53:08;;;;;;;14.80;5.80;;;;;;;;;;4992464;28;20101;-56
2024/01/17 09:55:37;;;;;;;13.38;5.32;;;;;;;;;;4993933;28;20015;-56
2024/01/17 09:58:03;;;;;;;12.52;5.22;;;;;;;;;;4993248;28;20030;-57
2024/01/17 10:00:28;;;;;;;13.80;5.77;;;;;;;;;;4993486;28;20034;-56
2024/01/17 10:02:54;;;;;;;15.45;5.47;;;;;;;;;;4988934;28;20417;-56
2024/01/17 10:05:21;;;;;;;14.32;6.75;;;;;;;;;;4992700;28;20371;-56
2024/01/17 10:07:46;;;;;;;16.50;5.50;;;;;;;;;;4992151;28;20023;-56
2024/01/17 10:10:13;;;;;;;13.40;5.07;;;;;;;;;;4992397;28;20106;-56
2024/01/17 10:12:38;;;;;;;14.40;5.88;;;;;;;;;;4991583;28;20029;-56
2024/01/17 10:15:07;;;;;;;15.48;5.80;;;;;;;;;;4991831;28;20022;-56
2024/01/17 10:17:36;;;;;;;16.25;5.38;;;;;;;;;;4990881;28;20031;-56
2024/01/17 10:20:02;;;;;;;10.02;4.60;;;;;;;;;;4991820;28;20470;-56
2024/01/17 10:22:27;;;;;;;12.18;5.07;;;;;;;;;;4988575;28;20253;-57
2024/01/17 10:24:52;;;;;;;14.83;5.47;;;;;;;;;;4990997;28;20026;-57
2024/01/17 10:27:17;;;;;;;15.38;5.53;;;;;;;;;;4992444;28;20020;-56
2024/01/17 10:29:43;;;;;;;15.57;5.53;;;;;;;;;;4992052;28;20057;-56
2024/01/17 10:32:08;;;;;;;14.30;5.13;;;;;;;;;;4991669;28;20026;-56
2024/01/17 10:34:36;;;;;;;14.40;5.63;;;;;;;;;;4991514;28;20446;-57
2024/01/17 10:37:02;;;;;;;14.10;5.40;;;;;;;;;;4990970;28;20457;-57
2024/01/17 10:39:29;;;;;;;12.50;5.00;;;;;;;;;;4990802;28;20043;-56
2024/01/17 10:41:54;;;;;;;13.75;5.65;;;;;;;;;;4985197;28;21719;-57
2024/01/17 10:44:20;;;;;;;15.82;5.38;;;;;;;;;;4987237;28;20027;-56
2024/01/17 10:46:52;;;;;;;11.98;5.63;;;;;;;;;;4989270;28;20014;-56
2024/01/17 10:49:18;;;;;;;13.52;5.45;;;;;;;;;;4980566;28;20062;-56
2024/01/17 10:51:52;;;;;;;16.65;5.45;;;;;;;;;;4991634;28;20038;-58
2024/01/17 10:54:19;;;;;;;11.98;4.57;;;;;;;;;;4991607;28;20088;-55
2024/01/17 10:56:50;;;;;;;14.98;5.18;;;;;;;;;;4990215;28;20040;-55
2024/01/17 10:59:17;;;;;;;13.13;5.25;;;;;;;;;;4991604;28;20029;-55
2024/01/17 11:01:44;;;;;;;17.85;5.82;;;;;;;;;;4991438;28;20026;-56
2024/01/17 11:04:13;;;;;;;14.82;5.80;;;;;;;;;;4990927;28;20458;-56
2024/01/17 11:06:39;;;;;;;11.77;5.35;;;;;;;;;;4991525;28;20025;-56
2024/01/17 11:09:06;;;;;;;14.73;5.88;;;;;;;;;;4991451;28;20395;-57
2024/01/17 11:11:32;;;;;;;12.55;5.20;;;;;;;;;;4990229;28;20038;-56
2024/01/17 11:13:57;;;;;;;12.90;5.63;;;;;;;;;;4991306;28;20026;-57
2024/01/17 11:16:23;;;;;;;14.95;5.65;;;;;;;;;;4994442;28;20026;-56
2024/01/17 11:18:49;;;;;;;12.18;5.38;;;;;;;;;;4995002;28;20026;-56
2024/01/17 11:21:15;;;;;;;13.23;5.63;;;;;;;;;;4994896;28;20113;-57
2024/01/17 11:23:51;;;;;;;14.55;5.80;;;;;;;;;;4995051;28;20495;-55
2024/01/17 11:26:28;;;;;;;14.55;5.45;;;;;;;;;;4995549;28;20018;-56
2024/01/17 11:28:53;;;;;;;14.05;6.00;;;;;;;;;;4994086;28;20038;-56
2024/01/17 11:31:18;;;;;;;12.25;5.50;;;;;;;;;;4994638;28;20019;-57
2024/01/17 11:33:44;;;;;;;12.85;5.28;;;;;;;;;;4994877;28;20097;-57
2024/01/17 11:36:29;;;;;;;12.13;4.70;;;;;;;;;;4993759;28;20034;-56
2024/01/17 11:38:54;;;;;;;12.50;4.93;;;;;;;;;;4994796;28;20461;-56
2024/01/17 11:41:19;;;;;;;12.27;5.05;;;;;;;;;;4994982;28;20022;-56
2024/01/17 11:43:44;;;;;;;11.63;5.80;;;;;;;;;;4993352;28;20056;-57
2024/01/17 11:46:10;;;;;;;12.43;5.20;;;;;;;;;;4993100;28;20491;-56
2024/01/17 11:48:36;;;;;;;14.77;5.32;;;;;;;;;;5010380;28;20044;-57
2024/01/17 11:51:15;;;;;;;15.77;5.43;;;;;;;;;;5015323;28;20049;-56
2024/01/17 11:53:46;;;;;;;13.88;4.93;;;;;;;;;;5012748;28;20018;-57
2024/01/17 11:56:12;;;;;;;11.65;4.85;;;;;;;;;;5007796;28;20084;-58
2024/01/17 11:58:41;;;;;;;10.95;4.78;;;;;;;;;;4998826;28;20050;-57
2024/01/17 12:01:09;;;;;;;12.57;4.85;;;;;;;;;;4993527;28;20440;-56
2024/01/17 12:03:34;;;;;;;;;;;;;;;;;;4995488;28;20109;-56
2024/01/17 12:06:00;;;;;;;14.50;5.37;;;;;;;;;;5001726;28;19948;-57
2024/01/17 12:08:26;;;;;;;13.13;5.35;;;;;;;;;;4999683;28;20031;-56
2024/01/17 12:10:52;;;;;;;12.65;4.57;;;;;;;;;;4994750;28;20028;-57
2024/01/17 12:13:17;;;;;;;12.40;5.10;;;;;;;;;;4993864;28;20093;-56
2024/01/17 12:15:42;;;;;;;12.57;5.00;;;;;;;;;;4993182;28;20084;-57
2024/01/17 12:18:08;;;;;;;12.57;5.47;;;;;;;;;;4994113;28;20109;-57
2024/01/17 12:20:34;;;;;;;14.00;5.25;;;;;;;;;;4994126;28;20026;-57
2024/01/17 12:23:00;;;;;;;11.82;4.45;;;;;;;;;;4993519;28;20018;-56
2024/01/17 12:25:25;;;;;;;13.57;5.20;;;;;;;;;;4993926;28;20049;-57
2024/01/17 12:27:54;;;;;;;14.50;4.90;;;;;;;;;;4993444;28;20037;-56
2024/01/17 12:30:19;;;;;;;13.00;5.25;;;;;;;;;;4992939;28;20036;-57
2024/01/17 12:32:44;;;;;;;13.13;4.65;;;;;;;;;;4993616;28;20022;-57
2024/01/17 12:35:09;;;;;;;15.13;4.77;;;;;;;;;;4994670;28;20018;-57
2024/01/17 12:37:35;;;;;;;11.43;4.50;;;;;;;;;;4994262;28;20026;-56
2024/01/17 12:40:01;;;;;;;12.30;5.00;;;;;;;;;;4985524;28;20027;-57
2024/01/17 12:42:26;;;;;;;15.27;5.03;;;;;;;;;;4990913;28;20032;-58
2024/01/17 12:44:51;;;;;;;12.85;4.82;;;;;;;;;;4990335;28;20031;-58
2024/01/17 12:47:17;;;;;;;13.50;4.87;;;;;;;;;;4987628;28;20027;-57
2024/01/17 12:49:44;;;;;;;12.68;4.95;;;;;;;;;;4996547;28;20454;-56
2024/01/17 12:52:10;;;;;;;11.85;4.43;;;;;;;;;;4994313;28;20018;-55
2024/01/17 12:54:35;;;;;;;11.63;4.90;;;;;;;;;;4991873;28;20098;-58
2024/01/17 12:57:01;;;;;;;11.23;4.13;;;;;;;;;;4992173;28;20058;-57
2024/01/17 12:59:26;;;;;;;13.73;4.90;;;;;;;;;;4993656;28;20033;-56
2024/01/17 13:01:55;;;;;;;15.57;4.90;;;;;;;;;;4993390;28;20367;-56
2024/01/17 13:04:21;;;;;;;12.75;4.13;;;;;;;;;;4988058;28;20033;-56
2024/01/17 13:06:46;;;;;;;12.03;4.57;;;;;;;;;;4993508;28;20014;-57
2024/01/17 13:09:14;;;;;;;15.30;4.65;;;;;;;;;;4993193;28;20471;-56
2024/01/17 13:11:39;;;;;;;13.23;4.55;;;;;;;;;;4990654;28;20030;-57
2024/01/17 13:14:04;;;;;;;11.83;4.80;;;;;;;;;;4991981;28;20030;-56
2024/01/17 13:16:30;;;;;;;11.90;4.80;;;;;;;;;;4984204;28;20023;-58
2024/01/17 13:18:57;;;;;;;13.73;5.07;;;;;;;;;;4984777;28;20720;-57
2024/01/17 13:21:22;;;;;;;11.07;4.80;;;;;;;;;;4975490;28;20550;-57
2024/01/17 13:23:47;;;;;;;13.15;4.50;;;;;;;;;;4992575;28;20025;-56
2024/01/17 13:26:13;;;;;;;13.93;4.47;;;;;;;;;;4992626;28;20026;-57
2024/01/17 13:28:38;;;;;;;10.00;4.35;;;;;;;;;;4988155;28;20078;-56
2024/01/17 13:31:03;;;;;;;13.75;5.72;;;;;;;;;;4988263;28;20799;-56
2024/01/17 13:33:29;;;;;;;12.85;4.65;;;;;;;;;;4984812;28;20030;-56
2024/01/17 13:35:54;;;;;;;15.20;5.10;;;;;;;;;;4989072;28;20534;-57
2024/01/17 13:38:25;;;;;;;13.75;4.93;;;;;;;;;;4999799;28;20461;-58
2024/01/17 13:40:50;;;;;;;13.57;4.15;;;;;;;;;;5005400;28;20042;-56
2024/01/17 13:43:15;;;;;;;11.55;5.00;;;;;;;;;;5001282;28;20030;-57
2024/01/17 13:45:40;;;;;;;10.27;4.32;;;;;;;;;;4999722;28;20050;-57
2024/01/17 13:48:06;;;;;;;11.98;4.65;;;;;;;;;;4990995;28;20497;-56
2024/01/17 13:50:32;;;;;;;12.75;5.38;;;;;;;;;;5003025;28;20393;-61
2024/01/17 13:53:07;;;;;;;12.35;4.40;;;;;;;;;;5002479;28;20030;-56
2024/01/17 13:55:32;;;;;;;13.45;4.90;;;;;;;;;;5003731;28;20030;-57
2024/01/17 13:57:57;;;;;;;12.10;4.70;;;;;;;;;;5008819;28;20022;-57
2024/01/17 14:00:23;;;;;;;14.73;5.18;;;;;;;;;;5008477;28;20093;-58
2024/01/17 14:02:49;;;;;;;12.17;4.90;;;;;;;;;;5001456;28;20459;-55
2024/01/17 14:05:14;;;;;;;12.50;4.93;;;;;;;;;;4994108;28;20101;-56
2024/01/17 14:07:40;;;;;;;10.83;4.80;;;;;;;;;;4993869;28;20586;-56
2024/01/17 14:10:07;;;;;;;12.65;4.63;;;;;;;;;;4994392;28;20031;-58
2024/01/17 14:12:33;;;;;;;10.82;4.57;;;;;;;;;;4993369;28;20026;-57
2024/01/17 14:14:59;;;;;;;11.93;5.22;;;;;;;;;;4993853;28;20581;-57
2024/01/17 14:17:24;;;;;;;12.82;5.15;;;;;;;;;;4989127;28;20031;-56
2024/01/17 14:19:50;;;;;;;12.57;5.30;;;;;;;;;;5004565;28;20049;-57
2024/01/17 14:22:17;;;;;;;14.18;6.07;;;;;;;;;;4992499;28;20383;-57